Time;durP1;ratioP1;P1;durP2;ratioP2;P2;SDS_P1;SDS_P2;PMS_P1;PMS_P2;Temp;Humidity;BMP_temperature;BMP_pressure;BME280_temperature;BME280_humidity;BME280_pressure;Samples;Min_cycle;Max_cycle;Signal;HPM_P1;HPM_P2
2023/09/24 00:02:13;;;;;;;8.95;2.95;;;;;;;;;;4972968;28;20029;-73
2023/09/24 00:04:42;;;;;;;6.00;1.70;;;;;;;;;;4965910;28;20479;-74
2023/09/24 00:07:10;;;;;;;4.10;1.40;;;;;;;;;;4972459;28;20049;-73
2023/09/24 00:09:36;;;;;;;5.25;1.50;;;;;;;;;;4969009;28;20423;-72
2023/09/24 00:12:02;;;;;;;6.95;1.45;;;;;;;;;;4968936;28;20124;-72
2023/09/24 00:14:30;;;;;;;5.60;1.40;;;;;;;;;;4966134;28;20155;-72
2023/09/24 00:16:57;;;;;;;6.75;1.40;;;;;;;;;;4970943;28;20067;-72
2023/09/24 00:19:24;;;;;;;7.38;1.63;;;;;;;;;;4970672;28;20508;-73
2023/09/24 00:21:51;;;;;;;4.93;1.30;;;;;;;;;;4983780;28;20065;-73
2023/09/24 00:24:17;;;;;;;5.57;1.42;;;;;;;;;;4973110;28;20550;-74
2023/09/24 00:26:43;;;;;;;6.63;1.80;;;;;;;;;;4966623;28;20037;-74
2023/09/24 00:29:10;;;;;;;8.27;2.40;;;;;;;;;;4972099;28;20030;-72
2023/09/24 00:31:36;;;;;;;7.57;1.85;;;;;;;;;;4967027;28;20083;-73
2023/09/24 00:34:03;;;;;;;6.13;1.67;;;;;;;;;;4971947;28;20033;-72
2023/09/24 00:36:29;;;;;;;4.68;1.50;;;;;;;;;;4978393;28;20354;-72
2023/09/24 00:38:55;;;;;;;6.28;1.23;;;;;;;;;;4972286;28;20320;-72
2023/09/24 00:41:21;;;;;;;4.88;1.42;;;;;;;;;;4971450;28;20112;-72
2023/09/24 00:43:47;;;;;;;5.65;1.50;;;;;;;;;;4966413;28;20056;-73
2023/09/24 00:46:14;;;;;;;5.00;1.40;;;;;;;;;;4970959;28;20022;-72
2023/09/24 00:48:40;;;;;;;6.97;1.80;;;;;;;;;;4980177;28;20046;-73
2023/09/24 00:51:15;;;;;;;5.50;1.60;;;;;;;;;;4970959;28;20495;-72
2023/09/24 00:53:41;;;;;;;7.22;1.80;;;;;;;;;;4967168;28;20061;-73
2023/09/24 00:56:08;;;;;;;4.60;1.40;;;;;;;;;;4971202;28;20026;-73
2023/09/24 00:58:35;;;;;;;5.55;1.40;;;;;;;;;;4968674;28;20029;-73
2023/09/24 01:01:06;;;;;;;4.30;1.20;;;;;;;;;;4970314;28;20014;-72
2023/09/24 01:03:33;;;;;;;6.55;1.60;;;;;;;;;;4964766;28;20068;-73
2023/09/24 01:05:59;;;;;;;7.03;1.50;;;;;;;;;;4967864;28;20041;-73
2023/09/24 01:08:28;;;;;;;5.93;1.42;;;;;;;;;;4968119;28;20026;-74
2023/09/24 01:10:57;;;;;;;5.72;1.30;;;;;;;;;;4971477;28;20047;-72
2023/09/24 01:13:23;;;;;;;6.38;1.70;;;;;;;;;;4980979;28;20132;-73
2023/09/24 01:15:50;;;;;;;6.32;1.58;;;;;;;;;;4966933;28;20030;-74
2023/09/24 01:18:20;;;;;;;6.35;1.50;;;;;;;;;;4967405;28;20049;-72
2023/09/24 01:20:47;;;;;;;5.57;1.45;;;;;;;;;;4967828;28;20022;-72
2023/09/24 01:23:14;;;;;;;5.85;1.50;;;;;;;;;;4970649;28;20030;-73
2023/09/24 01:25:41;;;;;;;5.63;1.35;;;;;;;;;;4969406;28;20034;-73
2023/09/24 01:28:08;;;;;;;5.07;1.40;;;;;;;;;;4968454;28;20463;-73
2023/09/24 01:30:34;;;;;;;4.80;1.33;;;;;;;;;;4963003;28;20570;-73
2023/09/24 01:33:01;;;;;;;5.28;1.20;;;;;;;;;;4970146;28;20060;-73
2023/09/24 01:35:28;;;;;;;7.32;1.60;;;;;;;;;;4965816;28;20589;-73
2023/09/24 01:38:04;;;;;;;5.63;1.30;;;;;;;;;;4969332;28;20033;-73
2023/09/24 01:40:38;;;;;;;6.05;1.10;;;;;;;;;;4965259;28;20029;-72
2023/09/24 01:43:08;;;;;;;4.72;1.20;;;;;;;;;;4969771;28;20357;-72
2023/09/24 01:45:34;;;;;;;5.55;1.08;;;;;;;;;;4953431;28;20531;-73
2023/09/24 01:48:02;;;;;;;4.22;1.10;;;;;;;;;;4965960;28;20510;-73
2023/09/24 01:50:29;;;;;;;5.28;1.10;;;;;;;;;;4970124;28;20041;-73
2023/09/24 01:52:58;;;;;;;5.20;1.20;;;;;;;;;;4972281;28;20036;-72
2023/09/24 01:55:28;;;;;;;5.10;1.20;;;;;;;;;;4973036;28;20033;-73
2023/09/24 01:57:55;;;;;;;3.40;1.00;;;;;;;;;;4975506;28;20037;-72
2023/09/24 02:00:23;;;;;;;4.97;1.27;;;;;;;;;;4973514;28;20034;-72
2023/09/24 02:02:50;;;;;;;3.75;1.00;;;;;;;;;;4975011;28;20121;-73
2023/09/24 02:05:17;;;;;;;5.75;1.10;;;;;;;;;;4974387;28;20050;-74
2023/09/24 02:07:43;;;;;;;5.45;1.13;;;;;;;;;;4970707;28;20034;-74
2023/09/24 02:10:09;;;;;;;7.00;1.00;;;;;;;;;;4972562;28;20084;-74
2023/09/24 02:12:36;;;;;;;4.25;1.00;;;;;;;;;;4972367;28;20084;-71
2023/09/24 02:15:15;;;;;;;5.35;1.40;;;;;;;;;;4990822;28;20815;-72
2023/09/24 02:17:42;;;;;;;6.40;1.92;;;;;;;;;;4969004;28;20022;-72
2023/09/24 02:20:14;;;;;;;7.32;1.95;;;;;;;;;;4972028;28;20030;-71
2023/09/24 02:22:40;;;;;;;6.20;2.25;;;;;;;;;;4939389;28;20455;-72
2023/09/24 02:25:10;;;;;;;7.13;1.80;;;;;;;;;;4947081;28;20472;-72
2023/09/24 02:27:38;;;;;;;4.65;1.17;;;;;;;;;;4947505;28;20026;-73
2023/09/24 02:30:04;;;;;;;5.78;1.55;;;;;;;;;;4946328;28;20033;-72
2023/09/24 02:32:31;;;;;;;8.15;1.35;;;;;;;;;;4944204;28;20819;-71
2023/09/24 02:34:57;;;;;;;7.72;1.60;;;;;;;;;;4949264;28;20133;-72
2023/09/24 02:37:27;;;;;;;8.10;1.88;;;;;;;;;;4939408;28;20034;-73
2023/09/24 02:39:54;;;;;;;5.97;1.90;;;;;;;;;;4945282;28;20030;-72
2023/09/24 02:42:21;;;;;;;5.53;1.55;;;;;;;;;;4943645;28;20038;-77
2023/09/24 02:44:50;;;;;;;7.75;1.80;;;;;;;;;;4956797;28;20184;-72
2023/09/24 02:47:16;;;;;;;5.10;1.35;;;;;;;;;;4942609;28;20136;-72
2023/09/24 02:49:42;;;;;;;4.68;1.30;;;;;;;;;;4938313;28;20054;-72
2023/09/24 02:52:09;;;;;;;6.47;1.23;;;;;;;;;;4943674;28;20294;-72
2023/09/24 02:54:36;;;;;;;5.40;1.30;;;;;;;;;;4943451;28;20042;-72
2023/09/24 02:57:03;;;;;;;5.38;1.33;;;;;;;;;;4944435;28;20022;-72
2023/09/24 02:59:29;;;;;;;5.13;1.40;;;;;;;;;;4964281;28;20132;-72
2023/09/24 03:01:56;;;;;;;4.13;1.10;;;;;;;;;;4971403;28;20045;-73
2023/09/24 03:04:22;;;;;;;6.38;1.40;;;;;;;;;;4970883;28;20587;-72
2023/09/24 03:06:49;;;;;;;7.38;1.13;;;;;;;;;;4970310;28;20029;-72
2023/09/24 03:09:15;;;;;;;5.70;1.20;;;;;;;;;;4974503;28;20112;-71
2023/09/24 03:11:41;;;;;;;5.03;1.08;;;;;;;;;;4971365;28;20156;-72
2023/09/24 03:14:07;;;;;;;6.78;1.50;;;;;;;;;;4973964;28;20510;-72
2023/09/24 03:16:34;;;;;;;6.55;1.13;;;;;;;;;;4971528;28;20472;-72
2023/09/24 03:19:01;;;;;;;3.95;1.33;;;;;;;;;;4974292;28;20463;-72
2023/09/24 03:21:27;;;;;;;5.65;1.60;;;;;;;;;;4969829;28;20307;-72
2023/09/24 03:23:53;;;;;;;7.22;1.67;;;;;;;;;;4970029;28;20487;-72
2023/09/24 03:26:19;;;;;;;5.07;1.13;;;;;;;;;;4973495;28;20578;-72
2023/09/24 03:28:48;;;;;;;4.10;1.13;;;;;;;;;;4970801;28;20436;-74
2023/09/24 03:31:15;;;;;;;4.60;1.20;;;;;;;;;;4969378;28;20102;-72
2023/09/24 03:33:41;;;;;;;5.25;1.20;;;;;;;;;;4970098;28;20030;-73
2023/09/24 03:36:08;;;;;;;5.00;1.17;;;;;;;;;;4970004;28;20052;-72
2023/09/24 03:38:38;;;;;;;4.68;1.25;;;;;;;;;;4970243;28;20038;-73
2023/09/24 03:41:04;;;;;;;5.03;1.00;;;;;;;;;;4972304;28;20034;-72
2023/09/24 03:43:31;;;;;;;5.63;1.20;;;;;;;;;;4969856;28;20076;-72
2023/09/24 03:45:57;;;;;;;5.15;1.30;;;;;;;;;;4973920;28;20033;-73
2023/09/24 03:48:24;;;;;;;4.47;0.98;;;;;;;;;;4974009;28;20026;-72
2023/09/24 03:50:50;;;;;;;5.75;1.10;;;;;;;;;;4972979;28;20034;-72
2023/09/24 03:53:19;;;;;;;4.30;1.02;;;;;;;;;;4974137;28;20765;-72
2023/09/24 03:55:47;;;;;;;5.05;1.20;;;;;;;;;;4969321;28;20044;-72
2023/09/24 03:58:14;;;;;;;5.95;1.27;;;;;;;;;;4973034;28;20045;-72
2023/09/24 04:00:44;;;;;;;5.57;1.15;;;;;;;;;;4970338;28;20338;-72
2023/09/24 04:03:12;;;;;;;4.22;1.00;;;;;;;;;;4972633;28;20049;-72
2023/09/24 04:05:38;;;;;;;6.35;1.50;;;;;;;;;;4969698;28;20018;-72
2023/09/24 04:08:04;;;;;;;6.63;1.48;;;;;;;;;;4971554;28;20065;-73
2023/09/24 04:10:30;;;;;;;5.00;1.10;;;;;;;;;;4971321;28;20451;-72
2023/09/24 04:13:00;;;;;;;5.32;1.05;;;;;;;;;;4967212;28;20152;-72
2023/09/24 04:15:29;;;;;;;6.40;1.20;;;;;;;;;;4969008;28;20034;-74
2023/09/24 04:17:56;;;;;;;5.90;1.30;;;;;;;;;;4975835;28;20052;-72
2023/09/24 04:20:22;;;;;;;3.95;1.02;;;;;;;;;;4976500;28;20275;-72
2023/09/24 04:22:49;;;;;;;5.35;1.15;;;;;;;;;;4971110;28;20062;-72
2023/09/24 04:25:17;;;;;;;4.47;1.23;;;;;;;;;;4975175;28;20077;-71
2023/09/24 04:27:44;;;;;;;5.70;1.20;;;;;;;;;;4972780;28;20238;-72
2023/09/24 04:30:15;;;;;;;4.95;0.98;;;;;;;;;;4971917;28;20137;-71
2023/09/24 04:33:02;;;;;;;3.15;1.00;;;;;;;;;;4971970;28;20041;-72
2023/09/24 04:35:28;;;;;;;6.28;1.25;;;;;;;;;;4975218;28;20033;-73
2023/09/24 04:37:55;;;;;;;7.72;1.30;;;;;;;;;;4975719;28;20130;-72
2023/09/24 04:40:22;;;;;;;7.70;1.35;;;;;;;;;;4973735;28;20331;-72
2023/09/24 04:42:51;;;;;;;4.75;1.10;;;;;;;;;;4972805;28;20034;-73
2023/09/24 04:45:17;;;;;;;6.35;1.20;;;;;;;;;;4971965;28;20036;-72
2023/09/24 04:47:44;;;;;;;5.13;1.20;;;;;;;;;;4974030;28;20427;-72
2023/09/24 04:50:14;;;;;;;4.93;1.23;;;;;;;;;;4977775;28;20042;-72
2023/09/24 04:52:41;;;;;;;6.85;1.30;;;;;;;;;;4968443;28;20436;-72
2023/09/24 04:55:08;;;;;;;4.97;1.23;;;;;;;;;;4974444;28;20745;-72
2023/09/24 04:57:34;;;;;;;5.55;1.25;;;;;;;;;;4976761;28;20054;-74
2023/09/24 05:00:00;;;;;;;5.75;1.25;;;;;;;;;;4977244;28;20514;-72
2023/09/24 05:02:27;;;;;;;6.05;1.23;;;;;;;;;;4968214;28;20030;-73
2023/09/24 05:04:54;;;;;;;5.18;1.33;;;;;;;;;;4973994;28;20034;-72
2023/09/24 05:07:20;;;;;;;6.18;1.00;;;;;;;;;;4973878;28;20018;-71
2023/09/24 05:09:47;;;;;;;5.53;1.27;;;;;;;;;;4971312;28;20430;-71
2023/09/24 05:12:13;;;;;;;5.95;1.27;;;;;;;;;;4974914;28;20487;-72
2023/09/24 05:14:39;;;;;;;4.10;1.10;;;;;;;;;;4971073;28;20373;-72
2023/09/24 05:17:06;;;;;;;4.63;1.10;;;;;;;;;;4972855;28;20393;-72
2023/09/24 05:19:33;;;;;;;6.38;1.33;;;;;;;;;;4970047;28;20120;-72
2023/09/24 05:21:59;;;;;;;5.65;1.20;;;;;;;;;;4975466;28;20038;-72
2023/09/24 05:24:25;;;;;;;5.82;1.38;;;;;;;;;;4973223;28;20040;-72
2023/09/24 05:26:51;;;;;;;4.57;1.20;;;;;;;;;;4971520;28;20327;-71
2023/09/24 05:29:17;;;;;;;5.10;1.10;;;;;;;;;;4975991;28;20164;-72
2023/09/24 05:31:43;;;;;;;4.35;0.98;;;;;;;;;;4972730;28;20029;-74
2023/09/24 05:34:10;;;;;;;5.53;1.23;;;;;;;;;;4974099;28;20064;-74
2023/09/24 05:36:36;;;;;;;5.82;1.20;;;;;;;;;;4974259;28;20629;-72
2023/09/24 05:39:03;;;;;;;4.53;1.13;;;;;;;;;;4973967;28;20030;-72
2023/09/24 05:41:29;;;;;;;3.70;0.90;;;;;;;;;;4968904;28;20701;-72
2023/09/24 05:44:01;;;;;;;4.85;1.42;;;;;;;;;;4975854;28;20035;-72
2023/09/24 05:46:27;;;;;;;5.03;1.30;;;;;;;;;;4970788;28;20034;-72
2023/09/24 05:48:55;;;;;;;4.65;1.40;;;;;;;;;;4975193;28;20338;-72
2023/09/24 05:51:21;;;;;;;6.40;1.58;;;;;;;;;;4971775;28;20038;-73
2023/09/24 05:53:47;;;;;;;6.00;1.20;;;;;;;;;;4973218;28;20038;-71
2023/09/24 05:56:13;;;;;;;11.27;1.42;;;;;;;;;;4976264;28;20595;-71
2023/09/24 05:58:40;;;;;;;7.00;1.60;;;;;;;;;;4973881;28;20491;-71
2023/09/24 06:01:06;;;;;;;6.85;1.35;;;;;;;;;;4977447;28;20475;-72
2023/09/24 06:03:32;;;;;;;5.15;1.30;;;;;;;;;;4990594;28;20289;-72
2023/09/24 06:05:58;;;;;;;5.13;1.15;;;;;;;;;;4970629;28;20398;-72
2023/09/24 06:08:25;;;;;;;5.72;1.50;;;;;;;;;;4990017;28;20350;-71
2023/09/24 06:10:52;;;;;;;4.32;1.17;;;;;;;;;;4975750;28;20030;-71
2023/09/24 06:13:18;;;;;;;5.43;1.27;;;;;;;;;;4975042;28;20041;-72
2023/09/24 06:15:44;;;;;;;4.25;1.10;;;;;;;;;;4973906;28;21932;-71
2023/09/24 06:18:11;;;;;;;3.88;1.20;;;;;;;;;;4977675;28;20093;-72
2023/09/24 06:20:38;;;;;;;5.47;1.13;;;;;;;;;;4970606;28;20042;-72
2023/09/24 06:23:06;;;;;;;3.50;1.08;;;;;;;;;;4974828;28;20062;-72
2023/09/24 06:25:33;;;;;;;5.20;1.30;;;;;;;;;;4970799;28;20030;-72
2023/09/24 06:28:00;;;;;;;6.10;1.20;;;;;;;;;;4975444;28;20713;-72
2023/09/24 06:30:26;;;;;;;5.15;1.23;;;;;;;;;;4966892;28;20037;-74
2023/09/24 06:32:52;;;;;;;7.35;1.40;;;;;;;;;;4973314;28;20156;-72
2023/09/24 06:35:18;;;;;;;3.88;1.15;;;;;;;;;;4974078;28;20456;-73
2023/09/24 06:37:44;;;;;;;4.22;1.05;;;;;;;;;;4967692;28;20649;-72
2023/09/24 06:40:11;;;;;;;5.50;1.10;;;;;;;;;;4990556;28;20491;-72
2023/09/24 06:42:37;;;;;;;4.65;1.17;;;;;;;;;;4972650;28;20981;-72
2023/09/24 06:45:08;;;;;;;4.40;1.20;;;;;;;;;;4977443;28;20029;-72
2023/09/24 06:47:34;;;;;;;5.53;1.40;;;;;;;;;;4969969;28;20371;-72
2023/09/24 06:50:00;;;;;;;5.30;1.30;;;;;;;;;;4972792;28;20370;-72
2023/09/24 06:52:30;;;;;;;5.05;1.60;;;;;;;;;;4967853;28;20038;-72
2023/09/24 06:54:56;;;;;;;5.50;1.40;;;;;;;;;;4972750;28;20626;-72
2023/09/24 06:57:22;;;;;;;5.13;1.40;;;;;;;;;;4969443;28;20354;-71
2023/09/24 06:59:49;;;;;;;6.30;1.55;;;;;;;;;;4969633;28;20251;-71
2023/09/24 07:02:16;;;;;;;6.88;1.50;;;;;;;;;;4971314;28;20033;-71
2023/09/24 07:04:43;;;;;;;6.07;1.20;;;;;;;;;;4968332;28;20409;-71
2023/09/24 07:07:09;;;;;;;6.22;1.40;;;;;;;;;;4971951;28;20353;-71
2023/09/24 07:09:36;;;;;;;3.50;0.90;;;;;;;;;;4970145;28;20042;-72
2023/09/24 07:12:02;;;;;;;5.75;1.45;;;;;;;;;;4972335;28;20315;-72
2023/09/24 07:14:28;;;;;;;4.97;1.40;;;;;;;;;;4970301;28;20595;-70
2023/09/24 07:16:55;;;;;;;5.90;1.50;;;;;;;;;;4971878;28;20512;-71
2023/09/24 07:19:21;;;;;;;7.47;1.40;;;;;;;;;;4968980;28;20120;-71
2023/09/24 07:21:48;;;;;;;6.00;1.30;;;;;;;;;;4968715;28;20447;-71
2023/09/24 07:24:15;;;;;;;6.30;1.77;;;;;;;;;;4971946;28;20420;-71
2023/09/24 07:26:44;;;;;;;5.50;1.27;;;;;;;;;;4970064;28;20471;-73
2023/09/24 07:29:11;;;;;;;3.15;1.02;;;;;;;;;;4970577;28;20049;-72
2023/09/24 07:31:37;;;;;;;3.45;0.90;;;;;;;;;;4967019;28;20025;-72
2023/09/24 07:34:05;;;;;;;4.80;1.33;;;;;;;;;;4975080;28;20467;-72
2023/09/24 07:36:31;;;;;;;5.53;1.25;;;;;;;;;;4969522;28;20377;-72
2023/09/24 07:38:57;;;;;;;4.00;1.10;;;;;;;;;;4975460;28;20325;-72
2023/09/24 07:41:24;;;;;;;3.30;1.00;;;;;;;;;;4972882;28;20041;-72
2023/09/24 07:43:50;;;;;;;4.80;1.00;;;;;;;;;;4988568;28;20288;-74
2023/09/24 07:46:17;;;;;;;3.20;1.00;;;;;;;;;;4968819;28;20338;-72
2023/09/24 07:48:44;;;;;;;4.13;1.00;;;;;;;;;;4968433;28;20167;-72
2023/09/24 07:51:11;;;;;;;4.20;1.00;;;;;;;;;;4975825;28;20076;-72
2023/09/24 07:53:37;;;;;;;4.93;1.20;;;;;;;;;;4974460;28;20042;-72
2023/09/24 07:56:07;;;;;;;5.32;1.17;;;;;;;;;;4980273;28;20029;-73
2023/09/24 07:58:34;;;;;;;3.92;1.17;;;;;;;;;;4974528;28;20112;-71
2023/09/24 08:01:04;;;;;;;7.72;2.80;;;;;;;;;;4977177;28;20129;-72
2023/09/24 08:03:31;;;;;;;11.80;4.15;;;;;;;;;;4972393;28;20057;-74
2023/09/24 08:05:57;;;;;;;9.93;3.53;;;;;;;;;;4977837;28;20372;-74
2023/09/24 08:08:24;;;;;;;10.68;3.60;;;;;;;;;;4979622;28;20030;-72
2023/09/24 08:10:50;;;;;;;8.27;3.38;;;;;;;;;;4976953;28;20670;-72
2023/09/24 08:13:17;;;;;;;12.90;3.95;;;;;;;;;;4975929;28;20627;-72
2023/09/24 08:15:43;;;;;;;8.13;3.15;;;;;;;;;;4974470;28;20034;-72
2023/09/24 08:18:10;;;;;;;8.93;2.72;;;;;;;;;;4974938;28;20026;-72
2023/09/24 08:20:36;;;;;;;8.73;2.58;;;;;;;;;;4975836;28;20034;-73
2023/09/24 08:23:03;;;;;;;9.32;2.53;;;;;;;;;;4975151;28;20115;-73
2023/09/24 08:25:30;;;;;;;6.93;2.25;;;;;;;;;;4971818;28;20034;-73
2023/09/24 08:27:57;;;;;;;7.72;2.33;;;;;;;;;;4976687;28;20030;-72
2023/09/24 08:30:23;;;;;;;7.50;2.33;;;;;;;;;;4978725;28;20354;-72
2023/09/24 08:32:49;;;;;;;7.65;2.83;;;;;;;;;;4972809;28;20033;-72
2023/09/24 08:35:15;;;;;;;8.43;2.70;;;;;;;;;;4977956;28;20038;-72
2023/09/24 08:37:42;;;;;;;7.45;2.35;;;;;;;;;;4969075;28;20033;-72
2023/09/24 08:40:12;;;;;;;6.82;2.00;;;;;;;;;;4974226;28;20045;-72
2023/09/24 08:42:38;;;;;;;7.72;2.42;;;;;;;;;;4985422;28;20081;-72
2023/09/24 08:45:13;;;;;;;8.55;2.28;;;;;;;;;;4979239;28;20033;-74
2023/09/24 08:47:39;;;;;;;5.20;1.42;;;;;;;;;;4977501;28;20468;-73
2023/09/24 08:50:09;;;;;;;5.50;1.77;;;;;;;;;;4977999;28;20125;-74
2023/09/24 08:52:40;;;;;;;7.93;1.98;;;;;;;;;;4972475;28;20089;-71
2023/09/24 08:55:07;;;;;;;5.90;1.55;;;;;;;;;;4973714;28;20255;-74
2023/09/24 08:57:34;;;;;;;5.45;1.67;;;;;;;;;;4972016;28;20029;-73
2023/09/24 09:00:00;;;;;;;6.68;1.77;;;;;;;;;;4972871;28;20053;-73
2023/09/24 09:02:26;;;;;;;6.70;1.92;;;;;;;;;;4971888;28;20399;-73
2023/09/24 09:04:55;;;;;;;8.90;2.28;;;;;;;;;;4973627;28;20046;-73
2023/09/24 09:07:21;;;;;;;7.32;2.13;;;;;;;;;;4976793;28;20424;-73
2023/09/24 09:09:59;;;;;;;7.65;1.80;;;;;;;;;;4974571;28;20037;-72
2023/09/24 09:12:26;;;;;;;5.45;1.63;;;;;;;;;;4971101;28;20052;-72
2023/09/24 09:14:52;;;;;;;5.95;1.48;;;;;;;;;;4976240;28;20569;-72
2023/09/24 09:17:19;;;;;;;5.82;1.50;;;;;;;;;;4977619;28;20400;-72
2023/09/24 09:19:52;;;;;;;6.05;1.50;;;;;;;;;;4971916;28;20662;-72
2023/09/24 09:22:22;;;;;;;5.88;1.40;;;;;;;;;;4988042;28;20045;-72
2023/09/24 09:24:50;;;;;;;5.93;1.42;;;;;;;;;;4973489;28;20081;-72
2023/09/24 09:27:16;;;;;;;6.32;1.30;;;;;;;;;;4976535;28;20034;-74
2023/09/24 09:29:42;;;;;;;9.13;1.98;;;;;;;;;;4971203;28;20441;-73
2023/09/24 09:32:09;;;;;;;6.35;1.40;;;;;;;;;;4972379;28;20674;-73
2023/09/24 09:34:35;;;;;;;6.15;1.95;;;;;;;;;;4971811;28;20029;-74
2023/09/24 09:37:17;;;;;;;5.57;1.65;;;;;;;;;;4973686;28;20128;-74
2023/09/24 09:39:44;;;;;;;5.55;1.50;;;;;;;;;;4970309;28;20033;-73
2023/09/24 09:42:11;;;;;;;7.00;1.40;;;;;;;;;;4975052;28;20351;-72
2023/09/24 09:44:38;;;;;;;4.32;1.20;;;;;;;;;;4969414;28;20345;-73
2023/09/24 09:47:05;;;;;;;5.68;1.30;;;;;;;;;;4976184;28;20026;-73
2023/09/24 09:49:33;;;;;;;5.15;1.40;;;;;;;;;;4972217;28;20049;-73
2023/09/24 09:52:03;;;;;;;6.30;1.67;;;;;;;;;;4972148;28;20029;-73
2023/09/24 09:54:34;;;;;;;6.75;1.90;;;;;;;;;;4973691;28;20029;-73
2023/09/24 09:57:01;;;;;;;6.72;1.90;;;;;;;;;;4975131;28;20084;-74
2023/09/24 09:59:28;;;;;;;5.53;1.48;;;;;;;;;;4972593;28;20401;-74
2023/09/24 10:01:55;;;;;;;5.30;1.40;;;;;;;;;;4974096;28;20124;-73
2023/09/24 10:04:22;;;;;;;4.30;1.30;;;;;;;;;;4974914;28;20080;-73
2023/09/24 10:06:48;;;;;;;5.80;1.50;;;;;;;;;;4974079;28;21084;-74
2023/09/24 10:09:27;;;;;;;6.70;1.92;;;;;;;;;;4979015;28;20448;-74
2023/09/24 10:11:55;;;;;;;5.38;1.80;;;;;;;;;;4981589;28;20568;-74
2023/09/24 10:14:37;;;;;;;4.88;1.25;;;;;;;;;;4979375;28;20046;-73
2023/09/24 10:17:23;;;;;;;7.03;1.48;;;;;;;;;;4980849;28;20412;-72
2023/09/24 10:20:08;;;;;;;6.20;1.48;;;;;;;;;;4972772;28;20054;-72
2023/09/24 10:22:35;;;;;;;5.40;1.70;;;;;;;;;;4973757;28;20034;-72
2023/09/24 10:25:19;;;;;;;4.47;1.27;;;;;;;;;;4974086;28;20233;-72
2023/09/24 10:28:00;;;;;;;4.60;1.20;;;;;;;;;;4973942;28;20120;-72
2023/09/24 10:30:27;;;;;;;4.30;1.20;;;;;;;;;;4975182;28;20028;-73
2023/09/24 10:32:54;;;;;;;5.35;1.33;;;;;;;;;;4978645;28;20078;-72
2023/09/24 10:35:20;;;;;;;4.28;1.25;;;;;;;;;;4975657;28;20594;-74
2023/09/24 10:37:57;;;;;;;6.22;1.55;;;;;;;;;;4970652;28;20038;-74
2023/09/24 10:40:26;;;;;;;3.75;1.25;;;;;;;;;;4976142;28;20026;-73
2023/09/24 10:43:10;;;;;;;6.05;1.48;;;;;;;;;;4974790;28;20447;-73
2023/09/24 10:45:36;;;;;;;7.65;1.50;;;;;;;;;;4973987;28;21081;-72
2023/09/24 10:48:03;;;;;;;6.28;1.40;;;;;;;;;;4976090;28;20038;-72
2023/09/24 10:50:29;;;;;;;5.40;1.40;;;;;;;;;;4976337;28;20338;-73
2023/09/24 10:52:55;;;;;;;4.72;1.05;;;;;;;;;;4976878;28;20046;-72
2023/09/24 10:55:31;;;;;;;3.60;1.20;;;;;;;;;;4985863;28;20033;-72
2023/09/24 10:58:01;;;;;;;7.07;1.40;;;;;;;;;;4975601;28;20034;-72
2023/09/24 11:00:28;;;;;;;6.30;2.30;;;;;;;;;;4972976;28;20564;-71
2023/09/24 11:02:56;;;;;;;7.10;2.15;;;;;;;;;;4973952;28;20267;-74
2023/09/24 11:05:23;;;;;;;5.75;1.60;;;;;;;;;;4977583;28;20049;-74
2023/09/24 11:07:49;;;;;;;6.78;1.70;;;;;;;;;;4975681;28;20030;-72
2023/09/24 11:10:18;;;;;;;7.13;1.45;;;;;;;;;;4978153;28;20018;-72
2023/09/24 11:12:55;;;;;;;4.65;1.50;;;;;;;;;;4974378;28;20054;-74
2023/09/24 11:15:22;;;;;;;5.47;1.60;;;;;;;;;;4975232;28;20298;-74
2023/09/24 11:17:50;;;;;;;7.30;1.83;;;;;;;;;;4978579;28;20679;-74
2023/09/24 11:20:22;;;;;;;5.63;1.30;;;;;;;;;;4979859;28;20269;-74
2023/09/24 11:22:57;;;;;;;7.60;1.80;;;;;;;;;;4974638;28;20045;-74
2023/09/24 11:25:24;;;;;;;4.40;1.70;;;;;;;;;;4990214;28;20491;-74
2023/09/24 11:27:54;;;;;;;7.05;2.17;;;;;;;;;;4982825;28;20033;-73
2023/09/24 11:30:21;;;;;;;7.72;2.20;;;;;;;;;;4986153;28;20056;-73
2023/09/24 11:32:48;;;;;;;6.70;1.58;;;;;;;;;;4987563;28;20174;-73
2023/09/24 11:35:15;;;;;;;4.55;1.40;;;;;;;;;;4983184;28;20040;-74
2023/09/24 11:37:47;;;;;;;5.65;1.80;;;;;;;;;;4980952;28;20377;-73
2023/09/24 11:40:27;;;;;;;5.18;1.88;;;;;;;;;;4983679;28;20865;-73
2023/09/24 11:42:55;;;;;;;5.63;1.75;;;;;;;;;;4983509;28;20038;-73
2023/09/24 11:45:38;;;;;;;6.15;1.80;;;;;;;;;;4984897;28;20030;-72
2023/09/24 11:48:05;;;;;;;6.55;2.08;;;;;;;;;;4984181;28;20024;-72
2023/09/24 11:50:31;;;;;;;6.15;1.70;;;;;;;;;;4976455;28;20056;-72
2023/09/24 11:52:57;;;;;;;4.80;1.23;;;;;;;;;;4982895;28;20038;-73
2023/09/24 11:55:24;;;;;;;5.82;1.40;;;;;;;;;;4981445;28;20037;-73
2023/09/24 11:57:50;;;;;;;6.13;1.70;;;;;;;;;;4982126;28;20740;-73
2023/09/24 12:00:16;;;;;;;6.22;1.83;;;;;;;;;;4981321;28;20402;-73
2023/09/24 12:02:42;;;;;;;7.25;2.53;;;;;;;;;;4978373;28;20124;-74
2023/09/24 12:05:08;;;;;;;8.13;2.40;;;;;;;;;;4984028;28;20030;-73
2023/09/24 12:07:35;;;;;;;7.05;2.30;;;;;;;;;;4976904;28;20274;-73
2023/09/24 12:10:01;;;;;;;5.18;1.88;;;;;;;;;;4979013;28;20589;-72
2023/09/24 12:12:28;;;;;;;5.30;1.80;;;;;;;;;;4974841;28;20041;-73
2023/09/24 12:14:54;;;;;;;5.05;1.40;;;;;;;;;;4982300;28;20022;-72
2023/09/24 12:17:20;;;;;;;7.47;1.40;;;;;;;;;;4983322;28;20033;-74
2023/09/24 12:19:46;;;;;;;5.80;1.70;;;;;;;;;;4980718;28;20563;-74
2023/09/24 12:22:13;;;;;;;6.70;2.47;;;;;;;;;;4977288;28;20053;-73
2023/09/24 12:24:39;;;;;;;6.50;2.10;;;;;;;;;;4994010;28;20364;-73
2023/09/24 12:27:06;;;;;;;5.13;1.20;;;;;;;;;;4985039;28;20758;-73
2023/09/24 12:29:32;;;;;;;5.20;1.55;;;;;;;;;;4980078;28;20725;-73
2023/09/24 12:31:58;;;;;;;5.22;1.60;;;;;;;;;;4982104;28;20048;-71
2023/09/24 12:34:24;;;;;;;4.97;1.67;;;;;;;;;;4983532;28;20026;-72
2023/09/24 12:36:50;;;;;;;5.32;1.55;;;;;;;;;;4983112;28;20704;-72
2023/09/24 12:39:20;;;;;;;3.45;1.20;;;;;;;;;;4981272;28;20485;-72
2023/09/24 12:41:49;;;;;;;5.95;1.77;;;;;;;;;;4979268;28;20975;-73
2023/09/24 12:44:15;;;;;;;5.95;1.50;;;;;;;;;;4981191;28;20377;-73
2023/09/24 12:46:41;;;;;;;4.65;1.55;;;;;;;;;;4974781;28;20031;-73
2023/09/24 12:49:08;;;;;;;6.05;1.70;;;;;;;;;;4981924;28;20029;-72
2023/09/24 12:51:34;;;;;;;4.47;1.30;;;;;;;;;;4974638;28;20110;-72
2023/09/24 12:54:00;;;;;;;5.93;1.80;;;;;;;;;;4975525;28;20048;-73
2023/09/24 12:56:26;;;;;;;5.50;1.40;;;;;;;;;;4974873;28;20567;-72
2023/09/24 12:58:52;;;;;;;4.55;1.17;;;;;;;;;;4979912;28;20331;-73
2023/09/24 13:01:18;;;;;;;5.35;1.17;;;;;;;;;;4981402;28;20037;-73
2023/09/24 13:03:45;;;;;;;4.57;1.38;;;;;;;;;;4975789;28;20046;-73
2023/09/24 13:06:17;;;;;;;5.93;1.65;;;;;;;;;;4980509;28;20112;-72
2023/09/24 13:08:46;;;;;;;4.55;1.42;;;;;;;;;;4973736;28;20212;-73
2023/09/24 13:11:13;;;;;;;4.53;1.40;;;;;;;;;;4977579;28;20023;-73
2023/09/24 13:13:39;;;;;;;5.88;1.77;;;;;;;;;;4974018;28;20042;-73
2023/09/24 13:16:05;;;;;;;4.35;1.40;;;;;;;;;;4978538;28;20037;-73
2023/09/24 13:18:32;;;;;;;5.75;1.65;;;;;;;;;;4973730;28;20044;-73
2023/09/24 13:20:58;;;;;;;6.93;2.30;;;;;;;;;;4977884;28;20018;-73
2023/09/24 13:23:24;;;;;;;7.93;2.83;;;;;;;;;;4983671;28;20041;-73
2023/09/24 13:25:50;;;;;;;6.15;1.88;;;;;;;;;;4975747;28;20037;-73
2023/09/24 13:28:17;;;;;;;6.72;1.83;;;;;;;;;;4987179;28;20279;-73
2023/09/24 13:30:43;;;;;;;5.63;1.20;;;;;;;;;;4976394;28;20025;-73
2023/09/24 13:33:10;;;;;;;3.75;1.25;;;;;;;;;;4981291;28;20033;-73
2023/09/24 13:35:40;;;;;;;5.03;1.30;;;;;;;;;;4972745;28;20088;-73
2023/09/24 13:38:06;;;;;;;4.78;1.23;;;;;;;;;;4979004;28;20535;-72
2023/09/24 13:40:37;;;;;;;5.70;1.10;;;;;;;;;;4968949;28;20044;-74
2023/09/24 13:43:04;;;;;;;5.47;1.25;;;;;;;;;;4977953;28;20049;-74
2023/09/24 13:45:30;;;;;;;5.43;1.65;;;;;;;;;;4971828;28;21851;-74
2023/09/24 13:47:56;;;;;;;4.53;1.30;;;;;;;;;;4976848;28;20041;-74
2023/09/24 13:50:22;;;;;;;3.95;1.40;;;;;;;;;;4977527;28;20387;-74
2023/09/24 13:52:49;;;;;;;4.47;1.20;;;;;;;;;;4974714;28;20042;-74
2023/09/24 13:55:15;;;;;;;7.32;3.30;;;;;;;;;;4973398;28;20624;-74
2023/09/24 13:57:41;;;;;;;12.95;3.88;;;;;;;;;;4974199;28;20038;-74
2023/09/24 14:00:08;;;;;;;6.18;2.10;;;;;;;;;;4979780;28;20056;-75
2023/09/24 14:02:34;;;;;;;8.27;2.58;;;;;;;;;;4975228;28;20499;-74
2023/09/24 14:05:01;;;;;;;5.15;1.60;;;;;;;;;;4971603;28;20029;-73
2023/09/24 14:07:27;;;;;;;6.18;1.83;;;;;;;;;;4972160;28;20384;-74
2023/09/24 14:12:38;;;;;;;4.43;1.25;;;;;;;;;;4971296;28;20092;-74
2023/09/24 14:15:04;;;;;;;6.45;1.58;;;;;;;;;;4975606;28;20053;-73
2023/09/24 14:17:32;;;;;;;5.28;1.50;;;;;;;;;;4972674;28;20687;-74
2023/09/24 14:19:58;;;;;;;5.38;1.40;;;;;;;;;;4974960;28;20030;-73
2023/09/24 14:22:24;;;;;;;6.07;1.40;;;;;;;;;;4972862;28;20030;-72
2023/09/24 14:24:51;;;;;;;6.20;1.38;;;;;;;;;;4972945;28;20806;-69
2023/09/24 14:27:17;;;;;;;5.40;1.40;;;;;;;;;;4980873;28;20030;-68
2023/09/24 14:29:43;;;;;;;3.90;1.15;;;;;;;;;;4968248;28;20489;-69
2023/09/24 14:32:09;;;;;;;6.32;1.70;;;;;;;;;;4973586;28;20125;-67
2023/09/24 14:34:35;;;;;;;5.30;1.42;;;;;;;;;;4969344;28;20164;-69
2023/09/24 14:37:02;;;;;;;4.47;1.25;;;;;;;;;;4972717;28;20095;-67
2023/09/24 14:39:29;;;;;;;3.92;1.30;;;;;;;;;;4968378;28;20040;-68
2023/09/24 14:41:55;;;;;;;5.57;1.25;;;;;;;;;;4971425;28;20112;-67
2023/09/24 14:44:21;;;;;;;5.38;1.60;;;;;;;;;;4970554;28;20041;-67
2023/09/24 14:46:48;;;;;;;6.05;1.40;;;;;;;;;;4969572;28;20033;-68
2023/09/24 14:49:14;;;;;;;6.93;1.58;;;;;;;;;;4969120;28;20034;-70